Time;durP1;ratioP1;P1;durP2;ratioP2;P2;SDS_P1;SDS_P2;PMS_P1;PMS_P2;Temp;Humidity;BMP_temperature;BMP_pressure;BME280_temperature;BME280_humidity;BME280_pressure;Samples;Min_cycle;Max_cycle;Signal;HPM_P1;HPM_P2
2022/07/09 00:00:12;;;;;;;0.68;0.45;;;;;;;;;;5043608;28;20408;-78
2022/07/09 00:02:38;;;;;;;3.58;0.50;;;;;;;;;;5038947;28;20044;-79
2022/07/09 00:05:04;;;;;;;2.25;0.57;;;;;;;;;;5043630;28;20489;-78
2022/07/09 00:07:30;;;;;;;2.95;1.13;;;;;;;;;;5036001;28;20025;-78
2022/07/09 00:09:56;;;;;;;1.05;0.60;;;;;;;;;;5047771;28;20033;-78
2022/07/09 00:12:22;;;;;;;0.93;0.50;;;;;;;;;;5040949;28;20025;-78
2022/07/09 00:14:48;;;;;;;3.70;0.80;;;;;;;;;;5038011;28;20091;-77
2022/07/09 00:17:14;;;;;;;2.38;0.47;;;;;;;;;;5042201;28;20137;-78
2022/07/09 00:19:40;;;;;;;2.65;0.80;;;12.80;99.90;;;;;;5047244;28;20120;-78
2022/07/09 00:22:06;;;;;;;1.15;0.55;;;;;;;;;;5038305;28;20583;-79
2022/07/09 00:24:32;;;;;;;0.95;0.40;;;;;;;;;;5043126;28;20465;-78
2022/07/09 00:26:58;;;;;;;4.63;0.40;;;;;;;;;;5035753;28;20044;-77
2022/07/09 00:29:24;;;;;;;2.20;0.60;;;;;;;;;;5044109;28;20025;-79
2022/07/09 00:31:50;;;;;;;2.17;1.05;;;;;;;;;;5039756;28;20036;-79
2022/07/09 00:34:16;;;;;;;2.03;0.90;;;;;;;;;;5042498;28;20082;-79
2022/07/09 00:36:42;;;;;;;0.73;0.57;;;;;;;;;;5036734;28;20028;-78
2022/07/09 00:39:07;;;;;;;9.93;1.25;;;;;;;;;;5048112;28;20040;-79
2022/07/09 00:41:33;;;;;;;4.07;0.68;;;;;;;;;;5046453;28;20443;-79
2022/07/09 00:43:59;;;;;;;2.78;0.68;;;;;;;;;;5044987;28;20416;-78
2022/07/09 00:46:25;;;;;;;1.10;0.50;;;;;;;;;;5041334;28;20424;-78
2022/07/09 00:48:51;;;;;;;4.30;0.95;;;;;;;;;;5044447;28;20409;-78
2022/07/09 00:51:18;;;;;;;1.40;1.00;;;;;;;;;;5049028;28;20602;-79
2022/07/09 00:53:45;;;;;;;2.05;0.82;;;;;;;;;;5047211;28;20059;-77
2022/07/09 00:56:12;;;;;;;0.80;0.40;;;;;;;;;;5038259;28;20021;-79
2022/07/09 00:58:38;;;;;;;0.40;0.35;;;;;;;;;;5047778;28;20087;-79
2022/07/09 01:01:04;;;;;;;1.35;0.82;;;;;;;;;;5043198;28;20091;-78
2022/07/09 01:03:30;;;;;;;2.17;0.50;;;;;;;;;;5045242;28;20074;-78
2022/07/09 01:05:56;;;;;;;1.42;0.85;;;;;;;;;;5037887;28;20466;-79
2022/07/09 01:08:22;;;;;;;0.85;0.50;;;;;;;;;;5055709;28;20071;-78
2022/07/09 01:10:49;;;;;;;1.85;0.60;;;;;;;;;;5044051;28;20033;-78
2022/07/09 01:13:15;;;;;;;2.80;0.70;;;;;;;;;;5037667;28;20393;-78
2022/07/09 01:15:41;;;;;;;0.55;0.47;;;;;;;;;;5042948;28;20071;-79
2022/07/09 01:18:10;;;;;;;0.75;0.40;;;;;;;;;;5042386;28;20017;-79
2022/07/09 01:20:36;;;;;;;1.27;0.65;;;;;;;;;;5043437;28;20691;-79
2022/07/09 01:23:03;;;;;;;1.35;0.60;;;;;;;;;;5041472;28;20504;-78
2022/07/09 01:25:35;;;;;;;0.73;0.55;;;;;;;;;;5040438;28;20389;-78
2022/07/09 01:28:01;;;;;;;1.95;0.65;;;;;;;;;;5044603;28;20413;-78
2022/07/09 01:30:27;;;;;;;1.60;0.60;;;;;;;;;;5042372;28;21420;-77
2022/07/09 01:32:54;;;;;;;0.88;0.40;;;;;;;;;;5041943;28;20487;-77
2022/07/09 01:35:21;;;;;;;1.20;0.50;;;;;;;;;;5044092;28;20449;-78
2022/07/09 01:37:47;;;;;;;2.10;0.70;;;;;;;;;;5044231;28;20928;-77
2022/07/09 01:40:13;;;;;;;1.17;0.60;;;;;;;;;;5044377;28;20484;-78
2022/07/09 01:42:39;;;;;;;3.38;0.82;;;;;;;;;;5035284;28;20869;-77
2022/07/09 01:45:05;;;;;;;1.27;0.70;;;;;;;;;;5043391;28;22425;-78
2022/07/09 01:47:31;;;;;;;1.38;0.73;;;;;;;;;;5048121;28;20431;-78
2022/07/09 01:49:57;;;;;;;0.70;0.32;;;;;;;;;;5047800;28;20437;-77
2022/07/09 01:52:23;;;;;;;1.23;0.57;;;;;;;;;;5037914;28;20408;-78
2022/07/09 01:54:50;;;;;;;1.60;0.70;;;;;;;;;;5042012;28;20405;-77
2022/07/09 01:57:16;;;;;;;1.58;0.73;;;;;;;;;;5042774;28;20449;-78
2022/07/09 01:59:41;;;;;;;2.85;0.88;;;;;;;;;;5043904;28;20455;-78
2022/07/09 02:02:07;;;;;;;0.85;0.47;;;;;;;;;;5037726;28;20412;-78
2022/07/09 02:04:34;;;;;;;0.95;0.60;;;;;;;;;;5045893;28;20403;-78
2022/07/09 02:06:59;;;;;;;1.43;0.57;;;;;;;;;;5044673;28;20409;-78
2022/07/09 02:09:26;;;;;;;1.90;1.02;;;;;;;;;;5045872;28;20835;-78
2022/07/09 02:11:52;;;;;;;3.17;0.80;;;;;;;;;;5042370;28;20471;-78
2022/07/09 02:14:18;;;;;;;1.38;0.70;;;;;;;;;;5048365;28;20399;-77
2022/07/09 02:16:44;;;;;;;1.80;0.73;;;;;;;;;;5052105;28;20930;-77
2022/07/09 02:19:10;;;;;;;1.20;0.60;;;;;;;;;;5045234;28;20743;-78
2022/07/09 02:21:36;;;;;;;1.17;0.67;;;;;;;;;;5044181;28;20978;-77
2022/07/09 02:24:02;;;;;;;1.47;0.60;;;;;;;;;;5042930;28;20428;-77
2022/07/09 02:26:29;;;;;;;0.90;0.47;;;;;;;;;;5045093;28;20429;-79
2022/07/09 02:28:58;;;;;;;0.88;0.50;;;11.70;99.90;;;;;;5044875;28;20408;-78
2022/07/09 02:31:24;;;;;;;1.60;0.70;;;;;;;;;;5035589;28;20421;-79
2022/07/09 02:33:50;;;;;;;1.38;0.60;;;11.60;99.90;;;;;;5041126;28;20409;-79
2022/07/09 02:36:16;;;;;;;1.23;0.47;;;;;;;;;;5042173;28;20473;-79
2022/07/09 02:38:42;;;;;;;1.70;0.60;;;;;;;;;;5045743;28;20417;-79
2022/07/09 02:41:08;;;;;;;1.07;0.60;;;;;;;;;;5043090;28;20432;-78
2022/07/09 02:43:34;;;;;;;1.15;0.60;;;;;;;;;;5038338;28;20475;-79
2022/07/09 02:46:00;;;;;;;1.25;0.55;;;;;;;;;;5038114;28;20478;-79
2022/07/09 02:48:26;;;;;;;1.50;0.70;;;;;;;;;;5040513;28;20403;-78
2022/07/09 02:50:53;;;;;;;1.70;0.60;;;;;;;;;;5035135;28;20519;-79
2022/07/09 02:53:19;;;;;;;2.10;0.70;;;;;;;;;;5044225;28;20411;-78
2022/07/09 02:55:45;;;;;;;2.08;0.52;;;;;;;;;;5042644;28;20916;-79
2022/07/09 02:58:11;;;;;;;2.15;0.55;;;;;;;;;;5041782;28;20444;-79
2022/07/09 03:00:39;;;;;;;0.57;0.40;;;;;;;;;;5043711;28;20479;-78
2022/07/09 03:03:05;;;;;;;0.85;0.40;;;;;;;;;;5017207;28;21051;-78
2022/07/09 03:05:31;;;;;;;0.60;0.47;;;;;;;;;;5038805;28;20459;-79
2022/07/09 03:07:57;;;;;;;1.73;0.65;;;;;;;;;;5040393;28;20429;-79
2022/07/09 03:10:23;;;;;;;1.13;0.60;;;;;;;;;;5044475;28;20488;-78
2022/07/09 03:12:49;;;;;;;1.95;0.88;;;;;;;;;;5030164;28;20414;-79
2022/07/09 03:15:16;;;;;;;2.95;0.75;;;;;;;;;;5036212;28;20412;-79
2022/07/09 03:17:43;;;;;;;1.25;0.70;;;;;;;;;;5043015;28;20455;-78
2022/07/09 03:20:09;;;;;;;3.10;0.70;;;;;;;;;;5047798;28;20782;-78
2022/07/09 03:22:36;;;;;;;1.33;0.60;;;;;;;;;;5037039;28;20413;-79
2022/07/09 03:25:02;;;;;;;2.08;0.60;;;;;;;;;;5043043;28;20400;-78
2022/07/09 03:27:28;;;;;;;2.08;0.70;;;;;;;;;;5041222;28;20816;-79
2022/07/09 03:29:54;;;;;;;1.17;0.60;;;;;;;;;;5043589;28;20408;-78
2022/07/09 03:32:19;;;;;;;2.20;0.85;;;;;;;;;;5045502;28;20402;-79
2022/07/09 03:34:45;;;;;;;2.27;1.10;;;;;;;;;;5046713;28;20936;-78
2022/07/09 03:37:11;;;;;;;0.95;0.60;;;;;;;;;;5041482;28;20405;-78
2022/07/09 03:39:37;;;;;;;1.42;0.55;;;;;;;;;;5035034;28;20407;-79
2022/07/09 03:42:06;;;;;;;1.63;1.10;;;;;;;;;;5043770;28;20425;-78
2022/07/09 03:44:32;;;;;;;1.90;0.70;;;;;;;;;;5043487;28;20886;-78
2022/07/09 03:46:59;;;;;;;2.47;0.63;;;11.70;99.90;;;;;;5040828;28;20406;-78
2022/07/09 03:49:25;;;;;;;3.05;0.80;;;;;;;;;;5039304;28;20489;-78
2022/07/09 03:51:50;;;;;;;1.10;0.50;;;11.60;99.90;;;;;;5039722;28;20406;-78
2022/07/09 03:54:16;;;;;;;1.13;0.60;;;10.80;99.90;;;;;;5043394;28;20915;-79
2022/07/09 03:56:42;;;;;;;1.73;0.70;;;;;;;;;;5042243;28;20424;-78
2022/07/09 03:59:08;;;;;;;1.98;0.70;;;;;;;;;;5041722;28;20500;-78
2022/07/09 04:01:34;;;;;;;1.95;0.63;;;;;;;;;;5039364;28;20536;-78
2022/07/09 04:04:00;;;;;;;1.63;0.73;;;;;;;;;;5039133;28;20397;-78
2022/07/09 04:06:26;;;;;;;3.45;0.75;;;;;;;;;;5033019;28;20409;-79
2022/07/09 04:08:52;;;;;;;1.67;0.70;;;;;;;;;;5043760;28;20434;-78
2022/07/09 04:11:18;;;;;;;2.08;0.47;;;;;;;;;;5037235;28;20430;-79
2022/07/09 04:13:44;;;;;;;3.10;0.93;;;;;;;;;;5042632;28;22538;-78
2022/07/09 04:16:10;;;;;;;2.10;0.70;;;;;;;;;;5042136;28;20845;-78
2022/07/09 04:18:36;;;;;;;2.55;0.80;;;;;;;;;;5042255;28;20397;-78
2022/07/09 04:21:02;;;;;;;3.20;0.80;;;;;;;;;;5042825;28;20437;-78
2022/07/09 04:23:28;;;;;;;1.83;0.60;;;;;;;;;;5041731;28;20402;-78
2022/07/09 04:25:54;;;;;;;1.15;0.60;;;;;;;;;;5046171;28;20480;-78
2022/07/09 04:28:20;;;;;;;2.45;0.90;;;;;;;;;;5050183;28;20491;-78
2022/07/09 04:30:47;;;;;;;1.30;0.70;;;;;;;;;;5045106;28;20420;-79
2022/07/09 04:33:13;;;;;;;1.30;0.60;;;;;;;;;;5046228;28;20425;-78
2022/07/09 04:35:39;;;;;;;1.92;0.70;;;;;;;;;;5040132;28;20419;-77
2022/07/09 04:38:05;;;;;;;1.30;0.77;;;;;;;;;;5045897;28;20788;-79
2022/07/09 04:40:31;;;;;;;1.73;0.60;;;;;;;;;;5042489;28;21079;-78
2022/07/09 04:42:57;;;;;;;2.03;0.80;;;;;;;;;;5039915;28;20416;-78
2022/07/09 04:45:23;;;;;;;1.30;0.60;;;;;;;;;;5041791;28;20409;-78
2022/07/09 04:47:49;;;;;;;1.50;0.50;;;;;;;;;;5049361;28;20409;-79
2022/07/09 04:50:15;;;;;;;1.38;0.70;;;;;;;;;;5043146;28;20910;-78
2022/07/09 04:52:41;;;;;;;1.30;0.73;;;;;;;;;;5037578;28;20803;-78
2022/07/09 04:55:10;;;;;;;1.90;0.57;;;;;;;;;;5039324;28;20483;-77
2022/07/09 04:57:37;;;;;;;3.00;0.80;;;;;;;;;;5034370;28;20761;-78
2022/07/09 05:00:04;;;;;;;1.02;0.70;;;;;;;;;;5040567;28;20416;-78
2022/07/09 05:02:30;;;;;;;1.63;0.67;;;;;;;;;;5046144;28;20477;-77
2022/07/09 05:04:56;;;;;;;1.30;0.60;;;;;;;;;;5044924;28;20433;-78
2022/07/09 05:07:22;;;;;;;2.35;0.50;;;;;;;;;;5045288;28;20504;-78
2022/07/09 05:09:48;;;;;;;0.90;0.50;;;;;;;;;;5039674;28;20634;-78
2022/07/09 05:12:14;;;;;;;1.95;0.45;;;;;;;;;;5038392;28;20951;-77
2022/07/09 05:14:40;;;;;;;3.28;0.70;;;;;;;;;;5044433;28;20409;-78
2022/07/09 05:17:06;;;;;;;1.80;0.60;;;;;;;;;;5048422;28;20458;-77
2022/07/09 05:19:32;;;;;;;4.00;1.17;;;;;;;;;;5042801;28;20431;-79
2022/07/09 05:21:58;;;;;;;2.03;0.45;;;;;;;;;;5039530;28;20421;-78
2022/07/09 05:24:24;;;;;;;1.55;0.50;;;;;;;;;;5038504;28;20402;-78
2022/07/09 05:26:50;;;;;;;1.10;0.50;;;;;;;;;;5034775;28;20403;-77
2022/07/09 05:29:16;;;;;;;4.10;0.90;;;;;;;;;;5043568;28;20405;-78
2022/07/09 05:31:42;;;;;;;0.88;0.40;;;14.00;99.90;;;;;;5041994;28;20402;-77
2022/07/09 05:34:08;;;;;;;1.40;0.40;;;;;;;;;;5039117;28;20512;-77
2022/07/09 05:36:34;;;;;;;1.23;0.50;;;;;;;;;;5040799;28;20402;-78
2022/07/09 05:39:00;;;;;;;1.02;0.47;;;14.40;99.90;;;;;;5039704;28;20901;-78
2022/07/09 05:41:27;;;;;;;1.25;0.50;;;;;;;;;;5034379;28;20904;-78
2022/07/09 05:43:53;;;;;;;2.70;0.63;;;;;;;;;;5042561;28;20408;-77
2022/07/09 05:46:20;;;;;;;2.50;0.80;;;;;;;;;;5045422;28;20421;-78
2022/07/09 05:48:46;;;;;;;2.70;0.45;;;;;;;;;;5039144;28;20407;-78
2022/07/09 05:51:12;;;;;;;1.80;0.50;;;;;;;;;;5027577;28;20419;-79
2022/07/09 05:53:38;;;;;;;1.60;0.50;;;;;;;;;;5036426;28;20442;-78
2022/07/09 05:56:04;;;;;;;1.53;0.50;;;;;;;;;;5043569;28;21209;-77
2022/07/09 05:58:30;;;;;;;2.83;0.70;;;;;;;;;;5053047;28;20447;-79
2022/07/09 06:00:56;;;;;;;1.23;0.40;;;;;;;;;;5047129;28;20510;-78
2022/07/09 06:03:22;;;;;;;1.47;0.67;;;;;;;;;;5040242;28;20401;-78
2022/07/09 06:05:48;;;;;;;1.55;0.55;;;;;;;;;;5039267;28;20416;-79
2022/07/09 06:08:14;;;;;;;2.92;0.80;;;;;;;;;;5041028;28;20404;-78
2022/07/09 06:10:40;;;;;;;1.52;0.60;;;;;;;;;;5040358;28;21102;-78
2022/07/09 06:13:06;;;;;;;1.77;0.57;;;;;;;;;;5043619;28;20447;-77
2022/07/09 06:15:32;;;;;;;0.80;0.45;;;;;;;;;;5036007;28;20407;-76
2022/07/09 06:17:58;;;;;;;1.40;0.70;;;;;;;;;;5029165;28;20478;-78
2022/07/09 06:20:24;;;;;;;2.35;0.47;;;;;;;;;;5027401;28;20405;-79
2022/07/09 06:22:50;;;;;;;0.98;0.68;;;;;;;;;;5042930;28;20501;-79
2022/07/09 06:25:15;;;;;;;1.67;0.70;;;18.40;99.90;;;;;;5038324;28;20028;-79
2022/07/09 06:27:42;;;;;;;5.35;0.50;;;;;;;;;;5038692;28;20045;-78
2022/07/09 06:30:08;;;;;;;0.60;0.35;;;;;;;;;;5042994;28;20041;-78
2022/07/09 06:32:34;;;;;;;0.20;0.17;;;19.70;99.90;;;;;;5032410;28;20029;-78
2022/07/09 06:35:00;;;;;;;2.15;0.60;;;;;;;;;;5042324;28;20033;-78
2022/07/09 06:37:26;;;;;;;;;;;;;;;;;;5042563;28;20129;-77
2022/07/09 06:39:55;;;;;;;;;;;22.00;99.90;;;;;;5040213;28;19908;-78
2022/07/09 06:42:21;;;;;;;;;;;22.60;97.90;;;;;;5044597;28;20414;-78
2022/07/09 06:44:46;;;;;;;;;;;23.10;96.50;;;;;;5046241;28;19920;-79
2022/07/09 06:47:12;;;;;;;;;;;;;;;;;;5041383;28;19912;-78
2022/07/09 06:49:38;;;;;;;;;;;26.00;91.60;;;;;;5029857;28;20250;-78
2022/07/09 06:52:04;;;;;;;;;;;27.40;83.70;;;;;;5035194;28;19913;-77
2022/07/09 06:54:29;;;;;;;;;;;28.30;80.50;;;;;;5042213;28;19916;-80
2022/07/09 06:56:56;;;;;;;;;;;30.80;67.50;;;;;;5048555;28;19927;-78
2022/07/09 06:59:22;;;;;;;;;;;31.30;60.20;;;;;;5050534;28;19909;-78
2022/07/09 07:01:48;;;;;;;;;;;30.40;60.90;;;;;;5040434;28;19917;-77
2022/07/09 07:04:14;;;;;;;;;;;30.10;63.10;;;;;;5034734;28;19915;-79
2022/07/09 07:06:40;;;;;;;;;;;;;;;;;;5031071;28;19990;-80
2022/07/09 07:09:06;;;;;;;;;;;29.60;63.20;;;;;;5034827;28;20376;-79
2022/07/09 07:11:31;;;;;;;;;;;29.00;64.00;;;;;;5035144;28;19917;-80
2022/07/09 07:13:57;;;;;;;;;;;;;;;;;;5020394;28;19916;-79
2022/07/09 07:16:22;;;;;;;;;;;26.60;67.00;;;;;;5024355;28;19975;-80
2022/07/09 07:18:48;;;;;;;;;;;;;;;;;;5044336;28;20364;-79
2022/07/09 07:21:14;;;;;;;1.67;0.20;;;;;;;;;;5043019;28;20032;-80
2022/07/09 07:23:40;;;;;;;1.83;0.40;;;;;;;;;;5034875;28;20028;-79
2022/07/09 07:26:06;;;;;;;0.77;0.40;;;;;;;;;;5046397;28;20033;-78
2022/07/09 07:28:32;;;;;;;0.55;0.20;;;;;;;;;;5060449;28;20083;-78
2022/07/09 07:30:58;;;;;;;0.73;0.40;;;;;;;;;;5061078;28;20036;-78
2022/07/09 07:33:24;;;;;;;1.17;0.32;;;;;;;;;;5055566;28;20036;-79
2022/07/09 07:35:50;;;;;;;3.88;0.68;;;;;;;;;;5046340;28;20032;-79
2022/07/09 07:38:15;;;;;;;;;;;26.70;72.10;;;;;;5048625;28;20036;-79
2022/07/09 07:40:42;;;;;;;;;;;;;;;;;;5029100;28;19963;-79
2022/07/09 07:43:10;;;;;;;;;;;27.50;71.00;;;;;;5032782;28;19909;-79
2022/07/09 07:45:36;;;;;;;;;;;27.40;69.90;;;;;;5041978;28;19927;-79
2022/07/09 07:48:01;;;;;;;;;;;28.00;68.50;;;;;;5048999;28;19917;-79
2022/07/09 07:50:26;;;;;;;;;;;27.80;67.90;;;;;;5045500;28;19920;-79
2022/07/09 07:52:52;;;;;;;;;;;28.30;69.50;;;;;;5043721;28;20424;-80
2022/07/09 07:55:17;;;;;;;;;;;27.90;67.90;;;;;;5042441;28;19916;-80
2022/07/09 07:57:45;;;;;;;;;;;26.80;67.50;;;;;;5057757;28;19948;-80
2022/07/09 08:00:11;;;;;;;;;;;26.20;70.80;;;;;;5045802;28;19959;-80
2022/07/09 08:02:36;;;;;;;;;;;26.20;72.00;;;;;;5049332;28;20339;-81
2022/07/09 08:05:01;;;;;;;;;;;26.20;70.80;;;;;;5045899;28;19999;-79
2022/07/09 08:07:27;;;;;;;;;;;;;;;;;;5048187;28;19913;-81
2022/07/09 08:09:53;;;;;;;;;;;26.40;68.70;;;;;;5046768;28;19992;-79
2022/07/09 08:12:19;;;;;;;;;;;26.60;70.10;;;;;;5053993;28;19908;-80
2022/07/09 08:14:44;;;;;;;;;;;26.80;68.70;;;;;;5050098;28;19963;-80
2022/07/09 08:17:10;;;;;;;;;;;;;;;;;;5040208;28;19970;-79
2022/07/09 08:19:35;;;;;;;;;;;27.10;69.20;;;;;;5033908;28;19909;-79
2022/07/09 08:22:01;;;;;;;;;;;27.40;67.60;;;;;;5039549;28;20347;-79
2022/07/09 08:24:27;;;;;;;;;;;;;;;;;;5039786;28;19917;-80
2022/07/09 08:26:53;;;;;;;;;;;27.80;64.50;;;;;;5043834;28;19960;-80
2022/07/09 08:29:18;;;;;;;;;;;27.40;66.60;;;;;;5044659;28;19931;-79
2022/07/09 08:31:44;;;;;;;;;;;28.30;66.40;;;;;;5034207;28;19927;-79
2022/07/09 08:34:09;;;;;;;;;;;27.70;63.80;;;;;;5049039;28;19960;-80
2022/07/09 08:36:35;;;;;;;;;;;27.90;62.90;;;;;;5047328;28;19908;-79
2022/07/09 08:39:00;;;;;;;;;;;27.90;59.20;;;;;;5046563;28;19962;-79
2022/07/09 08:41:26;;;;;;;;;;;29.40;60.10;;;;;;5038517;28;22001;-79
2022/07/09 08:43:51;;;;;;;;;;;28.90;58.40;;;;;;5033611;28;19908;-80
2022/07/09 08:46:17;;;;;;;;;;;30.00;56.40;;;;;;5038633;28;20387;-78
2022/07/09 08:48:43;;;;;;;;;;;31.80;54.10;;;;;;5041208;28;19933;-79
2022/07/09 08:51:09;;;;;;;;;;;33.20;52.90;;;;;;5029727;28;19955;-79
2022/07/09 08:53:39;;;;;;;;;;;34.10;47.40;;;;;;5047281;28;20440;-81
2022/07/09 08:56:04;;;;;;;;;;;33.80;47.00;;;;;;5045481;28;19917;-81
2022/07/09 08:58:31;;;;;;;;;;;34.50;45.00;;;;;;5050740;28;19913;-79
2022/07/09 09:00:58;;;;;;;;;;;34.60;44.00;;;;;;5044320;28;19970;-80
2022/07/09 09:03:23;;;;;;;;;;;35.60;43.10;;;;;;5043386;28;19952;-79
2022/07/09 09:06:08;;;;;;;;;;;37.00;43.30;;;;;;5045321;28;20423;-80
2022/07/09 09:08:35;;;;;;;;;;;36.40;41.20;;;;;;5051338;28;19973;-79
2022/07/09 09:11:01;;;;;;;;;;;36.60;40.30;;;;;;5042225;28;19960;-79
2022/07/09 09:13:27;;;;;;;;;;;;;;;;;;5042949;28;20451;-79
2022/07/09 09:16:05;;;;;;;;;;;36.50;38.40;;;;;;5050684;28;19966;-78
2022/07/09 09:18:30;;;;;;;;;;;36.40;40.00;;;;;;5042172;28;20554;-79
2022/07/09 09:21:06;;;;;;;;;;;40.60;42.00;;;;;;5041991;28;19943;-79
2022/07/09 09:23:44;;;;;;;;;;;36.50;41.20;;;;;;5045586;28;19920;-78
2022/07/09 09:26:18;;;;;;;;;;;37.70;39.20;;;;;;5047322;28;19917;-79
2022/07/09 09:29:15;;;;;;;;;;;37.50;38.40;;;;;;5033934;28;20170;-79
2022/07/09 09:31:41;;;;;;;;;;;36.00;38.00;;;;;;5006873;28;20388;-78
2022/07/09 09:34:06;;;;;;;;;;;35.50;39.90;;;;;;5044582;28;19916;-80
2022/07/09 09:36:38;;;;;;;;;;;33.60;42.80;;;;;;5034404;28;19993;-78
2022/07/09 09:39:11;;;;;;;;;;;30.20;45.30;;;;;;5046338;28;19909;-80
2022/07/09 09:41:37;;;;;;;;;;;;;;;;;;5044562;28;19920;-78
2022/07/09 09:44:03;;;;;;;;;;;;;;;;;;5032190;28;20320;-79
2022/07/09 09:46:28;;;;;;;;;;;27.10;55.00;;;;;;5034196;28;20019;-80
2022/07/09 09:48:54;;;;;;;;;;;;;;;;;;5037795;28;20043;-78
2022/07/09 09:51:20;;;;;;;;;;;;;;;;;;5036301;28;19917;-77
2022/07/09 09:53:46;;;;;;;;;;;25.50;57.70;;;;;;5041224;28;19917;-79
2022/07/09 09:56:12;;;;;;;;;;;25.30;60.80;;;;;;5037875;28;19912;-79
2022/07/09 09:58:38;;;;;;;;;;;;;;;;;;5032146;28;20365;-77
2022/07/09 10:01:04;;;;;;;;;;;;;;;;;;5048861;28;19913;-78
2022/07/09 10:03:30;;;;;;;;;;;24.50;65.30;;;;;;5038293;28;19919;-78
2022/07/09 10:05:55;;;;;;;;;;;;;;;;;;5042288;28;20016;-78
2022/07/09 10:08:21;;;;;;;;;;;;;;;;;;5033203;28;19912;-78
2022/07/09 10:10:50;;;;;;;;;;;23.70;67.90;;;;;;5043379;28;19913;-78
2022/07/09 10:13:16;;;;;;;;;;;;;;;;;;5038634;28;20408;-77
2022/07/09 10:15:42;;;;;;;;;;;;;;;;;;5037570;28;19909;-77
2022/07/09 10:18:08;;;;;;;;;;;;;;;;;;5043203;28;19909;-78
2022/07/09 10:20:34;;;;;;;;;;;23.40;73.10;;;;;;5038671;28;20460;-77
2022/07/09 10:22:59;;;;;;;;;;;;;;;;;;5038891;28;19925;-77
2022/07/09 10:25:29;;;;;;;;;;;22.40;72.40;;;;;;5027563;28;22396;-78
2022/07/09 10:27:55;;;;;;;;;;;23.00;73.60;;;;;;5039646;28;20043;-78
2022/07/09 10:30:20;;;;;;;;;;;;;;;;;;5031637;28;20477;-78
2022/07/09 10:32:46;;;;;;;;;;;;;;;;;;5047394;28;19916;-78
2022/07/09 10:35:13;;;;;;;;;;;;;;;;;;5042896;28;19951;-79
2022/07/09 10:37:38;;;;;;;;;;;23.00;76.60;;;;;;5035768;28;20353;-78
2022/07/09 10:40:04;;;;;;;;;;;;;;;;;;5044384;28;19912;-77
2022/07/09 10:42:30;;;;;;;;;;;;;;;;;;5042865;28;19921;-79
2022/07/09 10:44:55;;;;;;;;;;;22.30;73.60;;;;;;5037279;28;20546;-79
2022/07/09 10:47:21;;;;;;;;;;;;;;;;;;5034340;28;19909;-79
2022/07/09 10:49:47;;;;;;;;;;;;;;;;;;5039595;28;20021;-78
2022/07/09 10:52:13;;;;;;;;;;;;;;;;;;5032757;28;20379;-78
2022/07/09 10:54:39;;;;;;;;;;;;;;;;;;5028799;28;19913;-80
2022/07/09 10:57:05;;;;;;;;;;;;;;;;;;5031234;28;19913;-80
2022/07/09 10:59:30;;;;;;;;;;;24.00;68.20;;;;;;5049424;28;20254;-79
2022/07/09 11:01:56;;;;;;;;;;;24.70;70.30;;;;;;5042650;28;20050;-79
2022/07/09 11:04:22;;;;;;;;;;;;;;;;;;5042180;28;19932;-78
2022/07/09 11:06:48;;;;;;;;;;;;;;;;;;5045052;28;19961;-78
2022/07/09 11:09:14;;;;;;;;;;;24.80;69.20;;;;;;5028500;28;19909;-80
2022/07/09 11:11:40;;;;;;;;;;;;;;;;;;5037926;28;19916;-78
2022/07/09 11:14:06;;;;;;;;;;;;;;;;;;5045919;28;19917;-79
2022/07/09 11:16:32;;;;;;;;;;;;;;;;;;5035201;28;19916;-78
2022/07/09 11:18:57;;;;;;;;;;;;;;;;;;5040204;28;19917;-79
2022/07/09 11:21:24;;;;;;;;;;;;;;;;;;5047488;28;19920;-78
2022/07/09 11:23:50;;;;;;;;;;;;;;;;;;5048439;28;19912;-81
2022/07/09 11:26:15;;;;;;;;;;;25.50;66.20;;;;;;5043357;28;19913;-79
2022/07/09 11:28:41;;;;;;;;;;;;;;;;;;5044420;28;20000;-79
2022/07/09 11:31:07;;;;;;;;;;;;;;;;;;5038971;28;20387;-79
2022/07/09 11:36:17;;;;;;;;;;;;;;;;;;5040686;28;19915;-78
2022/07/09 11:38:43;;;;;;;;;;;;;;;;;;5044581;28;19917;-80
2022/07/09 11:41:08;;;;;;;;;;;25.00;68.30;;;;;;5044912;28;20392;-78
2022/07/09 11:43:34;;;;;;;;;;;24.90;67.60;;;;;;5042084;28;19909;-79
2022/07/09 11:46:00;;;;;;;;;;;;;;;;;;5038867;28;19913;-78
2022/07/09 11:48:25;;;;;;;;;;;25.10;68.70;;;;;;5047974;28;20381;-79
2022/07/09 11:50:51;;;;;;;;;;;24.80;67.20;;;;;;5047371;28;19963;-78
2022/07/09 11:53:21;;;;;;;;;;;24.90;67.70;;;;;;5045644;28;19962;-80
2022/07/09 11:55:56;;;;;;;;;;;25.50;65.70;;;;;;5041382;28;20001;-78
2022/07/09 11:58:22;;;;;;;;;;;;;;;;;;5044857;28;19913;-78
2022/07/09 12:00:48;;;;;;;;;;;25.40;63.50;;;;;;5034691;28;19919;-79
2022/07/09 12:03:22;;;;;;;;;;;25.80;63.40;;;;;;5043125;28;20657;-78
2022/07/09 12:05:49;;;;;;;;;;;25.70;65.80;;;;;;5044994;28;19909;-78
2022/07/09 12:08:15;;;;;;;;;;;;;;;;;;5043564;28;20436;-77
2022/07/09 12:10:41;;;;;;;;;;;25.10;64.80;;;;;;5042326;28;20046;-78
2022/07/09 12:13:08;;;;;;;;;;;25.70;64.90;;;;;;5046797;28;19909;-78
2022/07/09 12:15:34;;;;;;;;;;;;;;;;;;5036602;28;20313;-77
2022/07/09 12:18:00;;;;;;;;;;;;;;;;;;5042165;28;19936;-75
2022/07/09 12:20:27;;;;;;;;;;;25.50;64.80;;;;;;5042111;28;19915;-79
2022/07/09 12:22:53;;;;;;;;;;;25.90;65.10;;;;;;5050214;28;19921;-78
2022/07/09 12:25:19;;;;;;;;;;;25.10;63.90;;;;;;5040506;28;19913;-79
2022/07/09 12:27:45;;;;;;;;;;;;;;;;;;5057242;28;19976;-77
2022/07/09 12:30:11;;;;;;;;;;;26.00;63.00;;;;;;5044744;28;19959;-77
2022/07/09 12:32:37;;;;;;;;;;;;;;;;;;5042133;28;19912;-78
2022/07/09 12:35:02;;;;;;;;;;;26.20;61.80;;;;;;5042813;28;20273;-78
2022/07/09 12:37:28;;;;;;;;;;;;;;;;;;5052097;28;19912;-78
2022/07/09 12:39:54;;;;;;;;;;;26.00;63.20;;;;;;5050005;28;19913;-79
2022/07/09 12:42:20;;;;;;;;;;;25.80;63.30;;;;;;5058349;28;20007;-79
2022/07/09 12:44:45;;;;;;;;;;;25.80;63.60;;;;;;5048656;28;19963;-78
2022/07/09 12:47:11;;;;;;;;;;;25.90;62.50;;;;;;5052268;28;20284;-78
2022/07/09 12:49:36;;;;;;;;;;;25.90;61.50;;;;;;5052155;28;19915;-80
2022/07/09 12:52:02;;;;;;;;;;;;;;;;;;5054509;28;19920;-78
2022/07/09 12:54:28;;;;;;;;;;;;;;;;;;5053662;28;19958;-80
2022/07/09 12:56:55;;;;;;;;;;;;;;;;;;5054595;28;19915;-79
2022/07/09 12:59:21;;;;;;;;;;;;;;;;;;5056001;28;19908;-79
2022/07/09 13:01:46;;;;;;;;;;;26.40;60.60;;;;;;5049466;28;19924;-78
2022/07/09 13:04:12;;;;;;;;;;;26.70;62.70;;;;;;5045673;28;20771;-79
2022/07/09 13:06:37;;;;;;;;;;;26.60;60.60;;;;;;5050269;28;19913;-80
2022/07/09 13:09:04;;;;;;;;;;;26.40;59.40;;;;;;5048989;28;19928;-78
2022/07/09 13:11:29;;;;;;;;;;;26.40;60.90;;;;;;5054664;28;19933;-78
2022/07/09 13:13:55;;;;;;;;;;;26.30;61.70;;;;;;5054650;28;19972;-79
2022/07/09 13:16:22;;;;;;;;;;;;;;;;;;5049415;28;20414;-79
2022/07/09 13:18:47;;;;;;;;;;;;;;;;;;5052100;28;20042;-78
2022/07/09 13:21:13;;;;;;;;;;;25.70;61.90;;;;;;5051054;28;20011;-79
2022/07/09 13:23:39;;;;;;;;;;;25.90;62.80;;;;;;5052559;28;19909;-79
2022/07/09 13:26:04;;;;;;;;;;;25.60;63.40;;;;;;5050824;28;19909;-79
2022/07/09 13:28:30;;;;;;;;;;;25.30;63.30;;;;;;5054524;28;19917;-78
2022/07/09 13:30:56;;;;;;;;;;;;;;;;;;5054392;28;20361;-79
2022/07/09 13:33:21;;;;;;;;;;;25.00;65.90;;;;;;5052238;28;19909;-79
2022/07/09 13:35:47;;;;;;;;;;;23.80;65.10;;;;;;5045810;28;19913;-78
2022/07/09 13:38:13;;;;;;;;;;;;;;;;;;5052830;28;19926;-78
2022/07/09 13:40:39;;;;;;;;;;;24.60;66.60;;;;;;5049613;28;19909;-79
2022/07/09 13:43:04;;;;;;;;;;;24.10;67.40;;;;;;5050122;28;19916;-78
2022/07/09 13:45:29;;;;;;;;;;;24.90;67.50;;;;;;5051850;28;19912;-78
2022/07/09 13:47:55;;;;;;;;;;;;;;;;;;5050414;28;19912;-78
2022/07/09 13:50:21;;;;;;;;;;;25.50;64.10;;;;;;5052522;28;20408;-79
2022/07/09 13:52:47;;;;;;;;;;;25.80;65.00;;;;;;5050429;28;20777;-79
2022/07/09 13:55:13;;;;;;;;;;;;;;;;;;5047445;28;19927;-80
2022/07/09 13:57:38;;;;;;;;;;;26.20;60.20;;;;;;5052155;28;19999;-79
2022/07/09 14:00:05;;;;;;;;;;;26.50;60.50;;;;;;5052936;28;19917;-79
2022/07/09 14:02:33;;;;;;;;;;;26.50;59.70;;;;;;5047868;28;19971;-78
2022/07/09 14:04:59;;;;;;;;;;;26.80;59.00;;;;;;5053116;28;19913;-79
2022/07/09 14:07:25;;;;;;;;;;;26.80;59.90;;;;;;5049069;28;20047;-78
2022/07/09 14:09:50;;;;;;;;;;;27.10;57.80;;;;;;5050454;28;19909;-78
2022/07/09 14:12:16;;;;;;;;;;;27.00;56.80;;;;;;5052087;28;19908;-80
2022/07/09 14:14:42;;;;;;;;;;;26.70;56.70;;;;;;5052773;28;20007;-79
2022/07/09 14:17:07;;;;;;;;;;;26.80;57.40;;;;;;5044011;28;19912;-79
2022/07/09 14:19:33;;;;;;;;;;;26.90;58.20;;;;;;5044666;28;19909;-79
2022/07/09 14:21:58;;;;;;;;;;;26.40;58.80;;;;;;5050278;28;19917;-79
2022/07/09 14:24:24;;;;;;;;;;;26.20;59.70;;;;;;5053299;28;20546;-79
2022/07/09 14:26:49;;;;;;;;;;;26.40;59.50;;;;;;5050723;28;19908;-78
2022/07/09 14:29:15;;;;;;;;;;;26.40;60.20;;;;;;5046736;28;20560;-78
2022/07/09 14:31:40;;;;;;;;;;;26.50;59.20;;;;;;5050111;28;19916;-79
2022/07/09 14:34:06;;;;;;;;;;;26.60;58.30;;;;;;5051950;28;19915;-78
2022/07/09 14:36:31;;;;;;;;;;;26.90;57.60;;;;;;5054235;28;20133;-78
2022/07/09 14:38:57;;;;;;;;;;;27.00;58.50;;;;;;5053354;28;19983;-77
2022/07/09 14:41:22;;;;;;;;;;;26.90;57.10;;;;;;5048949;28;19924;-78
2022/07/09 14:43:48;;;;;;;;;;;27.10;56.80;;;;;;5051096;28;19923;-79